Main page
METAR-TAF:

METAR-TAF

Airports :

Jerez Airport

Jerez de la Frontera, Spain

latitude: 36-45N, longitude: 006-04W, elevation: 27 m

Current weather observation

The report was made 38 minutes ago, at 20:30 UTC
Wind 1 kt from variable directions
Temperature 9°C
Humidity 87%
Pressure 1026 hPa
Visibility 10 km or more
no clouds below 1500 m and no cumulonimbus

METAR: LEJR 102030Z VRB01KT CAVOK 09/07 Q1026

Time: 22:08 (21:08 UTC)

Forecast

The report was made 4 hours and 8 minutes ago, at 17:00 UTC
Forecast valid from 10 at 18 UTC to 11 at 18 UTC
Wind 3 kt from variable directions
Visibility 10 km or more
no clouds below 1500 m and no cumulonimbus
Becoming
from 11 at 14 UTC to 11 at 16 UTC
Wind 10 kt from the West/Northwest

TAF: LEJR 101700Z 1018/1118 VRB03KT CAVOK TX18/1115Z TN05/1107Z BECMG 1114/1116 29010KT

Weather observations and forecasts of more than 4000 airports (METAR and TAF reports).

The available stations are represented by yellow and red dots on the map.

Hover mouse over dot to see the name of the station.

Then click to see weather observations and forecasts.

To change the map : click on the green buttons with a black cross to zoom in, on the green button with a dash to zoom out, or on the green arrows for adjacent maps.


METAR-TAF: